createdAt,value
2019-06-10T00:03:45.034Z,17.30
2019-06-10T00:08:03.857Z,17.30
2019-06-10T00:12:21.002Z,17.40
2019-06-10T00:16:38.113Z,17.40
2019-06-10T00:20:54.598Z,17.40
2019-06-10T00:25:12.015Z,17.40
2019-06-10T00:29:31.107Z,17.40
2019-06-10T00:33:47.153Z,17.40
2019-06-10T00:38:06.897Z,17.40
2019-06-10T00:42:21.958Z,17.40
2019-06-10T00:46:40.747Z,17.30
2019-06-10T00:50:56.726Z,17.30
2019-06-10T00:55:13.919Z,17.30
2019-06-10T00:59:31.194Z,17.30
2019-06-10T01:03:47.813Z,17.30
2019-06-10T01:08:04.630Z,17.30
2019-06-10T01:12:21.254Z,17.30
2019-06-10T01:16:38.345Z,17.30
2019-06-10T01:20:54.880Z,17.30
2019-06-10T01:25:12.372Z,17.30
2019-06-10T01:29:32.000Z,17.30
2019-06-10T01:33:48.442Z,17.30
2019-06-10T01:38:05.863Z,17.30
2019-06-10T01:42:22.568Z,17.20
2019-06-10T01:47:00.977Z,17.10
2019-06-10T01:51:18.031Z,17.10
2019-06-10T01:55:34.484Z,17.10
2019-06-10T01:59:51.059Z,17.10
2019-06-10T02:04:08.287Z,17.10
2019-06-10T02:08:25.003Z,17.10
2019-06-10T02:12:41.618Z,17.10
2019-06-10T02:16:58.298Z,17.20
2019-06-10T02:21:16.679Z,17.20
2019-06-10T02:25:33.088Z,17.20
2019-06-10T02:29:50.712Z,17.20
2019-06-10T02:34:07.388Z,17.10
2019-06-10T02:38:33.137Z,17.10
2019-06-10T02:42:44.198Z,17.00
2019-06-10T02:47:03.478Z,16.90
2019-06-10T02:51:22.098Z,16.80
2019-06-10T02:55:37.435Z,16.80
2019-06-10T02:59:54.520Z,16.80
2019-06-10T03:04:13.776Z,16.70
2019-06-10T03:08:32.771Z,16.70
2019-06-10T03:12:48.300Z,16.70
2019-06-10T03:17:06.939Z,16.70
2019-06-10T03:21:25.657Z,16.70
2019-06-10T03:25:42.287Z,16.70
2019-06-10T03:29:59.271Z,16.60
2019-06-10T03:34:18.150Z,16.60
2019-06-10T03:38:36.949Z,16.60
2019-06-10T03:42:52.519Z,16.60
2019-06-10T03:47:09.488Z,16.60
2019-06-10T03:51:27.373Z,16.60
2019-06-10T03:55:44.596Z,16.60
2019-06-10T04:00:10.439Z,16.60
2019-06-10T04:04:23.380Z,16.60
2019-06-10T04:08:39.493Z,16.60
2019-06-10T04:12:56.577Z,16.60
2019-06-10T04:17:13.153Z,16.60
2019-06-10T04:21:32.419Z,16.50
2019-06-10T04:25:48.454Z,16.50
2019-06-10T04:30:06.904Z,16.50
2019-06-10T04:34:25.890Z,16.60
2019-06-10T04:38:43.181Z,16.70
2019-06-10T04:42:59.983Z,16.70
2019-06-10T04:47:16.530Z,16.70
2019-06-10T04:51:33.172Z,16.70
2019-06-10T04:55:52.122Z,16.80
2019-06-10T05:00:12.070Z,17.00
2019-06-10T05:04:28.771Z,17.30
2019-06-10T05:08:46.090Z,17.50
2019-06-10T05:13:03.210Z,17.60
2019-06-10T05:17:19.834Z,17.80
2019-06-10T05:21:36.366Z,18.00
2019-06-10T05:25:56.174Z,18.20
2019-06-10T05:30:12.367Z,18.40
2019-06-10T05:34:29.987Z,18.70
2019-06-10T05:38:47.305Z,19.10
2019-06-10T05:43:03.858Z,19.50
2019-06-10T05:47:23.366Z,19.80
2019-06-10T05:51:39.439Z,20.10
2019-06-10T05:55:55.954Z,20.30
2019-06-10T06:00:27.558Z,20.50
2019-06-10T06:04:46.076Z,20.50
2019-06-10T06:09:05.505Z,20.60
2019-06-10T06:13:23.228Z,20.70
2019-06-10T06:17:43.214Z,20.90
2019-06-10T06:22:02.130Z,21.00
2019-06-10T06:26:18.582Z,21.10
2019-06-10T06:30:36.433Z,21.30
2019-06-10T06:34:53.971Z,21.50
2019-06-10T06:39:12.664Z,21.60
2019-06-10T06:43:30.677Z,21.70
2019-06-10T06:47:47.315Z,21.90
2019-06-10T06:52:04.261Z,21.90
2019-06-10T06:56:23.063Z,22.00
2019-06-10T07:00:57.845Z,21.90
2019-06-10T07:04:58.647Z,22.00
2019-06-10T07:09:16.013Z,22.10
2019-06-10T07:13:35.900Z,22.30
2019-06-10T07:17:53.288Z,22.30
2019-06-10T07:22:16.257Z,22.40
2019-06-10T07:26:34.172Z,22.60
2019-06-10T07:31:03.281Z,22.90
2019-06-10T07:35:19.168Z,23.00
2019-06-10T07:39:36.871Z,23.10
2019-06-10T07:43:54.567Z,23.10
2019-06-10T07:48:12.209Z,23.20
2019-06-10T07:52:28.830Z,23.30
2019-06-10T07:56:50.225Z,23.40
2019-06-10T08:01:03.917Z,23.60
2019-06-10T08:05:20.438Z,23.70
2019-06-10T08:09:37.366Z,23.80
2019-06-10T08:13:54.240Z,23.90
2019-06-10T08:18:13.000Z,24.00
2019-06-10T08:22:35.101Z,24.20
2019-06-10T08:26:49.149Z,24.20
2019-06-10T08:31:05.640Z,24.30
2019-06-10T08:35:37.673Z,24.40
2019-06-10T08:39:42.824Z,24.30
2019-06-10T08:43:59.511Z,24.40
2019-06-10T08:48:17.963Z,24.40
2019-06-10T08:52:50.679Z,24.40
2019-06-10T08:56:54.015Z,24.40
2019-06-10T09:01:13.490Z,24.30
2019-06-10T09:05:32.272Z,24.20
2019-06-10T09:09:50.299Z,24.10
2019-06-10T09:14:07.298Z,24.00
2019-06-10T09:18:24.351Z,23.90
2019-06-10T09:22:42.221Z,23.90
2019-06-10T09:26:59.415Z,23.80
2019-06-10T09:31:15.924Z,23.90
2019-06-10T09:35:32.568Z,24.10
2019-06-10T09:39:58.002Z,24.20
2019-06-10T09:44:07.824Z,24.40
2019-06-10T09:48:24.562Z,24.60
2019-06-10T09:52:47.149Z,24.80
2019-06-10T09:57:02.446Z,25.00
2019-06-10T10:01:19.405Z,25.20
2019-06-10T10:05:35.949Z,25.60
2019-06-10T10:09:57.066Z,25.60
2019-06-10T10:14:16.028Z,25.40
2019-06-10T10:18:33.426Z,25.30
2019-06-10T10:22:50.525Z,25.20
2019-06-10T10:27:10.240Z,25.10
2019-06-10T10:31:26.920Z,25.20
2019-06-10T10:35:46.081Z,25.10
2019-06-10T10:40:03.954Z,25.30
2019-06-10T10:44:20.663Z,25.50
2019-06-10T10:48:37.174Z,25.90
2019-06-10T10:52:54.016Z,26.10
2019-06-10T10:57:13.054Z,26.40
2019-06-10T11:01:29.194Z,26.50
2019-06-10T11:05:48.100Z,26.70
2019-06-10T11:10:06.746Z,27.00
2019-06-10T11:14:23.743Z,27.00
2019-06-10T11:18:42.299Z,27.20
2019-06-10T11:22:59.033Z,27.30
2019-06-10T11:27:15.552Z,27.50
2019-06-10T11:31:32.868Z,27.80
2019-06-10T11:35:51.482Z,28.00
2019-06-10T11:40:09.195Z,28.20
2019-06-10T11:44:26.128Z,28.10
2019-06-10T11:48:43.456Z,27.80
2019-06-10T11:53:03.992Z,27.80
2019-06-10T11:57:19.727Z,27.90
2019-06-10T12:01:36.289Z,28.20
2019-06-10T12:05:55.764Z,28.20
2019-06-10T12:10:14.141Z,27.90
2019-06-10T12:14:33.172Z,27.60
2019-06-10T12:18:49.413Z,27.20
2019-06-10T12:23:06.389Z,26.80
2019-06-10T12:27:22.971Z,26.70
2019-06-10T12:31:39.757Z,27.50
2019-06-10T12:35:59.532Z,29.40
2019-06-10T12:40:16.342Z,31.10
2019-06-10T12:44:33.674Z,32.20
2019-06-10T12:48:52.742Z,32.90
2019-06-10T12:53:09.346Z,33.30
2019-06-10T12:57:25.825Z,32.50
2019-06-10T13:01:44.898Z,31.90
2019-06-10T13:06:07.361Z,31.50
2019-06-10T13:10:35.575Z,31.30
2019-06-10T13:14:52.186Z,30.90
2019-06-10T13:19:08.687Z,30.70
2019-06-10T13:23:31.607Z,31.10
2019-06-10T13:27:51.793Z,32.10
2019-06-10T13:32:08.212Z,32.60
2019-06-10T13:36:26.139Z,32.00
2019-06-10T13:40:43.820Z,31.30
2019-06-10T13:45:03.428Z,32.30
2019-06-10T13:49:19.017Z,33.40
2019-06-10T13:53:35.638Z,33.60
2019-06-10T13:57:53.334Z,33.70
2019-06-10T14:02:11.786Z,34.20
2019-06-10T14:06:44.565Z,34.20
2019-06-10T14:10:49.144Z,34.70
2019-06-10T14:15:09.341Z,34.70
2019-06-10T14:19:24.870Z,34.50
2019-06-10T14:23:42.472Z,34.30
2019-06-10T14:27:59.515Z,34.30
2019-06-10T14:32:16.374Z,33.80
2019-06-10T14:36:32.903Z,33.80
2019-06-10T14:40:49.508Z,34.00
2019-06-10T14:45:06.849Z,33.90
2019-06-10T14:49:23.424Z,33.80
2019-06-10T14:53:42.513Z,33.60
2019-06-10T14:57:58.416Z,33.50
2019-06-10T15:02:16.091Z,33.80
2019-06-10T15:06:34.029Z,34.00
2019-06-10T15:10:52.736Z,34.30
2019-06-10T15:15:10.580Z,34.60
2019-06-10T15:19:29.143Z,34.70
2019-06-10T15:23:45.720Z,34.80
2019-06-10T15:28:03.277Z,35.00
2019-06-10T15:32:32.663Z,35.20
2019-06-10T15:36:38.446Z,35.10
2019-06-10T15:40:54.993Z,34.80
2019-06-10T15:45:15.303Z,34.40
2019-06-10T15:49:32.757Z,33.90
2019-06-10T15:53:49.414Z,33.40
2019-06-10T15:58:06.048Z,32.90
2019-06-10T16:02:25.446Z,32.60
2019-06-10T16:06:42.481Z,32.00
2019-06-10T16:10:59.148Z,31.20
2019-06-10T16:15:18.160Z,30.40
2019-06-10T16:19:35.660Z,29.80
2019-06-10T16:23:53.363Z,29.10
2019-06-10T16:28:12.645Z,28.60
2019-06-10T16:32:28.719Z,28.00
2019-06-10T16:36:45.253Z,27.40
2019-06-10T16:41:17.451Z,26.90
2019-06-10T16:45:34.162Z,26.60
2019-06-10T16:49:52.240Z,26.30
2019-06-10T16:54:08.933Z,26.10
2019-06-10T16:58:27.980Z,25.90
2019-06-10T17:02:44.301Z,25.90
2019-06-10T17:07:02.133Z,25.80
2019-06-10T17:11:18.850Z,25.70
2019-06-10T17:15:36.066Z,25.60
2019-06-10T17:19:52.623Z,25.50
2019-06-10T17:24:09.391Z,25.40
2019-06-10T17:28:29.766Z,25.40
2019-06-10T17:32:45.674Z,25.20
2019-06-10T17:37:03.136Z,25.10
2019-06-10T17:41:21.320Z,24.90
2019-06-10T17:45:38.696Z,24.80
2019-06-10T17:49:55.504Z,24.40
2019-06-10T17:54:15.712Z,23.90
2019-06-10T17:58:49.268Z,23.10
2019-06-10T18:02:53.396Z,22.10
2019-06-10T18:07:09.323Z,21.30
2019-06-10T18:11:29.929Z,20.80
2019-06-10T18:15:49.859Z,20.30
2019-06-10T18:20:06.883Z,19.80
2019-06-10T18:24:25.756Z,19.70
2019-06-10T18:29:00.422Z,19.70
2019-06-10T18:33:10.295Z,19.70
2019-06-10T18:37:33.320Z,19.50
2019-06-10T18:41:52.929Z,19.30
2019-06-10T18:46:12.741Z,19.10
2019-06-10T18:50:36.092Z,18.90
2019-06-10T18:54:53.960Z,18.90
2019-06-10T18:59:20.660Z,18.80
